createdAt,value
2019-03-24T00:03:55.783Z,7.90
2019-03-24T00:09:23.622Z,8.00
2019-03-24T00:14:31.826Z,8.00
2019-03-24T00:19:40.009Z,8.10
2019-03-24T00:24:47.003Z,8.10
2019-03-24T00:29:56.775Z,8.10
2019-03-24T00:35:06.300Z,8.10
2019-03-24T00:40:15.174Z,7.90
2019-03-24T00:45:23.485Z,8.10
2019-03-24T00:50:30.276Z,8.00
2019-03-24T00:55:37.141Z,8.10
2019-03-24T01:00:49.949Z,8.00
2019-03-24T01:05:56.521Z,7.90
2019-03-24T01:11:03.002Z,8.00
2019-03-24T01:16:09.144Z,7.90
2019-03-24T01:21:16.037Z,7.90
2019-03-24T01:26:22.121Z,7.90
2019-03-24T01:31:29.007Z,7.90
2019-03-24T01:36:34.887Z,7.70
2019-03-24T01:41:40.846Z,7.70
2019-03-24T01:46:47.432Z,7.40
2019-03-24T01:51:54.027Z,7.60
2019-03-24T01:57:01.645Z,7.40
2019-03-24T02:02:07.702Z,7.30
2019-03-24T02:07:15.251Z,7.40
2019-03-24T02:12:23.538Z,7.40
2019-03-24T02:17:30.221Z,7.40
2019-03-24T02:22:36.297Z,7.40
2019-03-24T02:27:42.881Z,7.40
2019-03-24T02:32:50.287Z,7.40
2019-03-24T02:37:56.874Z,7.60
2019-03-24T02:43:02.807Z,7.50
2019-03-24T02:48:09.654Z,7.50
2019-03-24T02:53:16.534Z,7.40
2019-03-24T02:58:24.649Z,7.60
2019-03-24T03:03:30.628Z,7.50
2019-03-24T03:08:36.696Z,7.40
2019-03-24T03:13:43.898Z,7.30
2019-03-24T03:18:52.533Z,7.30
2019-03-24T03:23:59.357Z,7.40
2019-03-24T03:29:06.729Z,7.60
2019-03-24T03:34:13.629Z,7.50
2019-03-24T03:39:21.849Z,7.60
2019-03-24T03:44:27.825Z,7.40
2019-03-24T03:49:35.137Z,7.50
2019-03-24T03:54:42.018Z,7.30
2019-03-24T03:59:50.161Z,7.30
2019-03-24T04:04:56.115Z,7.30
2019-03-24T04:10:03.024Z,7.20
2019-03-24T04:15:11.371Z,7.20
2019-03-24T04:20:19.246Z,7.30
2019-03-24T04:25:26.047Z,7.40
2019-03-24T04:30:33.743Z,7.50
2019-03-24T04:35:41.675Z,7.50
2019-03-24T04:40:47.751Z,7.50
2019-03-24T04:45:54.833Z,7.50
2019-03-24T04:51:01.423Z,7.50
2019-03-24T04:56:08.525Z,7.60
2019-03-24T05:01:15.526Z,7.60
2019-03-24T05:06:22.740Z,7.70
2019-03-24T05:11:30.072Z,7.60
2019-03-24T05:16:39.315Z,7.60
2019-03-24T05:21:47.290Z,7.60
2019-03-24T05:26:53.785Z,7.70
2019-03-24T05:31:59.846Z,7.70
2019-03-24T05:37:06.537Z,7.60
2019-03-24T05:42:12.449Z,7.70
2019-03-24T05:47:18.903Z,7.70
2019-03-24T05:52:27.618Z,7.80
2019-03-24T05:57:34.307Z,7.90
2019-03-24T06:02:41.151Z,7.90
2019-03-24T06:07:49.019Z,8.00
2019-03-24T06:12:55.758Z,7.80
2019-03-24T06:18:02.193Z,8.00
2019-03-24T06:23:08.703Z,7.90
2019-03-24T06:28:16.899Z,7.90
2019-03-24T06:33:22.868Z,8.10
2019-03-24T06:43:52.344Z,8.20
2019-03-24T06:48:59.344Z,8.20
2019-03-24T06:54:05.932Z,8.30
2019-03-24T06:59:12.566Z,8.30
2019-03-24T07:04:19.709Z,8.30
2019-03-24T07:09:38.666Z,8.10
2019-03-24T07:14:44.660Z,8.30
2019-03-24T07:19:51.363Z,8.20
2019-03-24T07:24:58.137Z,8.30
2019-03-24T07:30:09.431Z,8.50
2019-03-24T07:35:18.423Z,8.50
2019-03-24T07:40:25.474Z,8.50
2019-03-24T07:45:34.119Z,8.60
2019-03-24T07:50:42.868Z,8.70
2019-03-24T07:55:48.918Z,8.80
2019-03-24T08:01:08.229Z,8.70
2019-03-24T08:06:14.374Z,8.50
2019-03-24T08:11:21.474Z,8.80
2019-03-24T08:16:28.027Z,9.00
2019-03-24T08:21:36.672Z,9.20
2019-03-24T08:26:43.487Z,9.20
2019-03-24T08:31:50.081Z,9.20
2019-03-24T08:36:56.976Z,9.30
2019-03-24T08:42:03.523Z,9.20
2019-03-24T08:47:09.629Z,9.40
2019-03-24T08:52:16.514Z,9.40
2019-03-24T08:57:23.615Z,9.30
2019-03-24T09:02:31.329Z,9.40
2019-03-24T09:07:39.343Z,9.50
2019-03-24T09:12:57.696Z,9.40
2019-03-24T09:18:04.297Z,9.40
2019-03-24T09:23:10.993Z,9.30
2019-03-24T09:28:17.553Z,9.40
2019-03-24T09:33:24.462Z,9.40
2019-03-24T09:38:32.989Z,9.50
2019-03-24T09:43:39.901Z,9.40
2019-03-24T09:49:07.263Z,9.40
2019-03-24T09:54:15.686Z,9.40
2019-03-24T10:00:21.465Z,9.20
2019-03-24T10:05:28.994Z,9.30
2019-03-24T10:10:35.554Z,9.40
2019-03-24T10:15:42.563Z,9.40
2019-03-24T10:20:48.629Z,9.30
2019-03-24T10:25:55.625Z,9.50
2019-03-24T10:31:02.572Z,9.50
2019-03-24T10:47:44.670Z,9.60
2019-03-24T10:52:51.990Z,9.90
2019-03-24T10:57:59.073Z,9.90
2019-03-24T11:03:05.449Z,9.70
2019-03-24T11:08:11.479Z,10.00
2019-03-24T11:13:19.494Z,9.90
2019-03-24T11:18:25.299Z,9.80
2019-03-24T11:23:31.328Z,9.90
2019-03-24T11:28:38.312Z,10.00
2019-03-24T11:33:46.364Z,9.70
2019-03-24T11:38:53.742Z,10.00
2019-03-24T11:44:00.550Z,9.80
2019-03-24T11:49:19.464Z,10.10
2019-03-24T11:54:26.880Z,10.10
2019-03-24T11:59:34.042Z,10.20
2019-03-24T12:04:40.777Z,10.10
2019-03-24T12:09:47.841Z,9.90
2019-03-24T12:14:56.193Z,10.00
2019-03-24T12:20:23.176Z,9.70
2019-03-24T12:25:31.582Z,9.90
2019-03-24T12:30:38.293Z,10.00
2019-03-24T12:35:45.171Z,10.10
2019-03-24T12:40:53.305Z,9.40
2019-03-24T12:46:01.012Z,9.20
2019-03-24T12:51:06.971Z,9.10
2019-03-24T12:56:13.963Z,9.00
2019-03-24T13:01:19.854Z,9.00
2019-03-24T13:06:28.231Z,9.30
2019-03-24T13:11:35.646Z,9.50
2019-03-24T13:16:43.358Z,9.60
2019-03-24T13:21:51.647Z,9.70
2019-03-24T13:26:57.585Z,9.60
2019-03-24T13:32:05.302Z,9.50
2019-03-24T13:37:11.822Z,9.20
2019-03-24T13:42:19.531Z,9.30
2019-03-24T13:47:29.036Z,9.10
2019-03-24T13:52:35.260Z,9.00
2019-03-24T13:57:43.573Z,9.10
2019-03-24T14:02:52.639Z,9.10
2019-03-24T14:07:58.716Z,9.00
2019-03-24T14:13:08.555Z,8.90
2019-03-24T14:18:16.924Z,9.00
2019-03-24T14:23:25.004Z,8.90
2019-03-24T14:28:33.621Z,8.70
2019-03-24T14:33:41.444Z,8.60
2019-03-24T14:38:48.890Z,8.70
2019-03-24T14:43:56.413Z,8.70
2019-03-24T14:49:04.988Z,8.90
2019-03-24T14:54:12.561Z,9.00
2019-03-24T14:59:21.454Z,9.00
2019-03-24T15:04:29.341Z,8.90
2019-03-24T15:09:37.757Z,9.00
2019-03-24T15:14:47.133Z,8.80
2019-03-24T15:19:55.191Z,9.00
2019-03-24T15:25:02.966Z,8.60
2019-03-24T15:30:11.628Z,8.80
2019-03-24T15:35:19.925Z,8.50
2019-03-24T15:40:28.343Z,8.60
2019-03-24T15:45:35.463Z,8.80
2019-03-24T15:50:41.931Z,8.70
2019-03-24T15:55:49.782Z,8.70
2019-03-24T16:00:57.015Z,9.00
2019-03-24T16:06:06.230Z,8.60
2019-03-24T16:11:16.118Z,8.70
2019-03-24T16:16:24.932Z,8.60
2019-03-24T16:21:32.006Z,8.90
2019-03-24T16:26:39.899Z,9.00
2019-03-24T16:32:08.035Z,9.00
2019-03-24T16:37:16.318Z,9.00
2019-03-24T16:42:24.593Z,8.90
2019-03-24T16:47:32.104Z,9.00
2019-03-24T16:52:42.443Z,8.90
2019-03-24T16:57:52.183Z,9.00
2019-03-24T17:03:01.841Z,9.00
2019-03-24T17:08:08.833Z,8.90
2019-03-24T17:13:17.396Z,8.90
2019-03-24T17:18:30.094Z,8.80
2019-03-24T17:23:37.694Z,8.80
2019-03-24T17:28:46.917Z,8.60
2019-03-24T17:33:53.628Z,8.40
2019-03-24T17:39:00.856Z,8.30
2019-03-24T17:44:10.099Z,8.30
2019-03-24T17:49:18.428Z,8.30
2019-03-24T17:54:28.762Z,8.20
2019-03-24T17:59:38.508Z,8.00
2019-03-24T18:04:46.109Z,8.20
2019-03-24T18:09:54.386Z,7.70
2019-03-24T18:15:02.306Z,7.90
2019-03-24T18:20:12.464Z,8.10
2019-03-24T18:25:19.476Z,7.80
2019-03-24T18:30:28.335Z,7.80
2019-03-24T18:35:35.551Z,7.50
2019-03-24T18:40:43.345Z,7.50
2019-03-24T18:45:51.677Z,7.50
2019-03-24T18:50:59.298Z,7.20
2019-03-24T18:56:06.950Z,7.30
2019-03-24T19:01:15.718Z,7.30
2019-03-24T19:06:23.543Z,7.20
2019-03-24T19:11:31.300Z,7.40
2019-03-24T19:16:38.420Z,7.10
2019-03-24T19:21:45.083Z,7.10
2019-03-24T19:26:53.924Z,7.00
2019-03-24T19:32:04.650Z,6.90
2019-03-24T19:37:13.117Z,7.00
2019-03-24T19:42:20.875Z,7.00
2019-03-24T19:47:29.196Z,7.00
2019-03-24T19:52:44.611Z,6.90
2019-03-24T19:57:48.533Z,6.80
2019-03-24T20:02:55.768Z,6.70
2019-03-24T20:08:02.827Z,6.80
2019-03-24T20:13:10.082Z,6.70
2019-03-24T20:18:19.197Z,6.80
2019-03-24T20:23:27.086Z,6.90
2019-03-24T20:28:36.344Z,6.80
2019-03-24T20:33:43.356Z,6.80
2019-03-24T20:38:53.614Z,6.80
2019-03-24T20:44:01.766Z,6.90
2019-03-24T20:49:10.040Z,6.70
2019-03-24T20:54:16.036Z,6.90
2019-03-24T20:59:25.030Z,6.60
2019-03-24T21:04:34.570Z,6.50
2019-03-24T21:09:42.966Z,6.50
2019-03-24T21:14:50.523Z,6.50
2019-03-24T21:19:58.613Z,6.60
2019-03-24T21:25:06.775Z,6.50
2019-03-24T21:30:16.118Z,6.60
2019-03-24T21:35:34.556Z,6.40
2019-03-24T21:40:41.626Z,6.30
2019-03-24T21:45:52.265Z,6.40
2019-03-24T21:50:58.695Z,6.50
2019-03-24T21:56:04.977Z,6.50
2019-03-24T22:01:14.986Z,6.50
2019-03-24T22:06:23.891Z,6.20
2019-03-24T22:11:31.358Z,6.20
2019-03-24T22:16:39.311Z,6.20
2019-03-24T22:21:45.174Z,6.10
2019-03-24T22:26:51.857Z,5.90
2019-03-24T22:31:58.240Z,5.90
2019-03-24T22:37:15.163Z,5.90
2019-03-24T22:42:12.923Z,5.70
2019-03-24T22:47:18.623Z,5.90
2019-03-24T22:52:26.500Z,5.70
2019-03-24T22:57:32.741Z,5.60
2019-03-24T23:02:40.121Z,5.40
2019-03-24T23:07:48.246Z,5.30
2019-03-24T23:12:55.639Z,5.20
2019-03-24T23:18:02.858Z,5.20
2019-03-24T23:23:09.164Z,5.20
2019-03-24T23:28:15.915Z,5.30
2019-03-24T23:33:23.906Z,5.20
2019-03-24T23:38:30.535Z,5.20
2019-03-24T23:43:39.061Z,5.10
2019-03-24T23:48:44.931Z,5.10
2019-03-24T23:53:51.717Z,5.20
2019-03-24T23:58:57.475Z,5.10
